sensor_id;sensor_type;location;lat;lon;timestamp;pressure;altitude;pressure_sealevel;temperature;humidity
2841;BME280;53423;49.224;12.074;2023-05-27T00:01:47;98530.03;;;13.74;55.10
2841;BME280;53423;49.224;12.074;2023-05-27T00:04:15;98534.31;;;13.67;55.49
2841;BME280;53423;49.224;12.074;2023-05-27T00:06:43;98538.56;;;13.52;54.99
2841;BME280;53423;49.224;12.074;2023-05-27T00:09:11;98537.09;;;13.42;54.92
2841;BME280;53423;49.224;12.074;2023-05-27T00:11:39;98542.97;;;13.28;55.52
2841;BME280;53423;49.224;12.074;2023-05-27T00:14:09;98542.22;;;13.02;56.34
2841;BME280;53423;49.224;12.074;2023-05-27T00:16:37;98546.53;;;13.19;56.04
2841;BME280;53423;49.224;12.074;2023-05-27T00:19:05;98545.78;;;13.42;54.92
2841;BME280;53423;49.224;12.074;2023-05-27T00:21:33;98534.97;;;13.45;56.10
2841;BME280;53423;49.224;12.074;2023-05-27T00:24:01;98539.56;;;13.59;55.15
2841;BME280;53423;49.224;12.074;2023-05-27T00:26:30;98545.66;;;13.52;55.99
2841;BME280;53423;49.224;12.074;2023-05-27T00:28:58;98541.84;;;13.46;56.00
2841;BME280;53423;49.224;12.074;2023-05-27T00:31:27;98543.63;;;13.30;56.88
2841;BME280;53423;49.224;12.074;2023-05-27T00:33:55;98541.94;;;13.13;57.10
2841;BME280;53423;49.224;12.074;2023-05-27T00:36:23;98537.88;;;13.01;57.22
2841;BME280;53423;49.224;12.074;2023-05-27T00:38:51;98539.66;;;12.92;58.29
2841;BME280;53423;49.224;12.074;2023-05-27T00:41:19;98535.72;;;12.88;59.12
2841;BME280;53423;49.224;12.074;2023-05-27T00:43:47;98536.50;;;13.14;56.26
2841;BME280;53423;49.224;12.074;2023-05-27T00:46:15;98534.19;;;13.11;56.11
2841;BME280;53423;49.224;12.074;2023-05-27T00:48:45;98539.38;;;13.37;56.34
2841;BME280;53423;49.224;12.074;2023-05-27T00:51:14;98530.63;;;13.20;57.24
2841;BME280;53423;49.224;12.074;2023-05-27T00:53:43;98535.41;;;13.33;56.43
2841;BME280;53423;49.224;12.074;2023-05-27T00:56:12;98532.25;;;13.21;56.91
2841;BME280;53423;49.224;12.074;2023-05-27T00:58:42;98535.22;;;13.26;55.42
2841;BME280;53423;49.224;12.074;2023-05-27T01:01:10;98532.50;;;13.52;53.92
2841;BME280;53423;49.224;12.074;2023-05-27T01:03:39;98529.06;;;13.84;51.91
2841;BME280;53423;49.224;12.074;2023-05-27T01:06:20;98528.09;;;14.01;52.10
2841;BME280;53423;49.224;12.074;2023-05-27T01:08:56;98527.59;;;13.97;52.20
2841;BME280;53423;49.224;12.074;2023-05-27T01:11:31;98519.69;;;14.05;51.54
2841;BME280;53423;49.224;12.074;2023-05-27T01:14:03;98525.44;;;14.09;51.72
2841;BME280;53423;49.224;12.074;2023-05-27T01:16:32;98519.19;;;14.18;50.60
2841;BME280;53423;49.224;12.074;2023-05-27T01:19:04;98522.31;;;14.37;49.96
2841;BME280;53423;49.224;12.074;2023-05-27T01:21:37;98516.03;;;14.38;49.92
2841;BME280;53423;49.224;12.074;2023-05-27T01:24:12;98518.34;;;14.49;49.40
2841;BME280;53423;49.224;12.074;2023-05-27T01:26:40;98514.19;;;14.63;48.85
2841;BME280;53423;49.224;12.074;2023-05-27T01:29:09;98515.47;;;14.67;48.58
2841;BME280;53423;49.224;12.074;2023-05-27T01:31:41;98507.41;;;14.68;48.89
2841;BME280;53423;49.224;12.074;2023-05-27T01:34:14;98509.06;;;14.69;48.92
2841;BME280;53423;49.224;12.074;2023-05-27T01:36:47;98509.47;;;14.89;47.80
2841;BME280;53423;49.224;12.074;2023-05-27T01:39:17;98503.13;;;15.06;46.93
2841;BME280;53423;49.224;12.074;2023-05-27T01:41:46;98509.84;;;14.78;48.00
2841;BME280;53423;49.224;12.074;2023-05-27T01:44:15;98502.72;;;14.86;47.63
2841;BME280;53423;49.224;12.074;2023-05-27T01:46:44;98500.09;;;14.86;47.83
2841;BME280;53423;49.224;12.074;2023-05-27T01:49:12;98501.28;;;15.15;46.82
2841;BME280;53423;49.224;12.074;2023-05-27T01:51:40;98503.03;;;14.91;47.29
2841;BME280;53423;49.224;12.074;2023-05-27T01:54:08;98495.59;;;14.95;47.48
2841;BME280;53423;49.224;12.074;2023-05-27T01:56:38;98494.25;;;14.99;46.89
2841;BME280;53423;49.224;12.074;2023-05-27T01:59:06;98496.06;;;14.98;46.85
2841;BME280;53423;49.224;12.074;2023-05-27T02:01:34;98500.34;;;14.61;48.55
2841;BME280;53423;49.224;12.074;2023-05-27T02:04:03;98490.59;;;14.69;48.24
2841;BME280;53423;49.224;12.074;2023-05-27T02:06:31;98502.97;;;14.61;48.43
2841;BME280;53423;49.224;12.074;2023-05-27T02:08:59;98495.72;;;14.63;48.50
2841;BME280;53423;49.224;12.074;2023-05-27T02:11:27;98494.22;;;14.60;48.81
2841;BME280;53423;49.224;12.074;2023-05-27T02:13:57;98494.75;;;14.56;48.99
2841;BME280;53423;49.224;12.074;2023-05-27T02:16:25;98492.91;;;14.64;47.92
2841;BME280;53423;49.224;12.074;2023-05-27T02:18:54;98490.47;;;14.47;48.76
2841;BME280;53423;49.224;12.074;2023-05-27T02:21:23;98491.94;;;14.57;48.06
2841;BME280;53423;49.224;12.074;2023-05-27T02:23:51;98489.81;;;14.45;48.14
2841;BME280;53423;49.224;12.074;2023-05-27T02:26:19;98490.31;;;14.48;48.34
2841;BME280;53423;49.224;12.074;2023-05-27T02:28:48;98497.28;;;14.25;48.61
2841;BME280;53423;49.224;12.074;2023-05-27T02:31:18;98497.25;;;14.33;47.86
2841;BME280;53423;49.224;12.074;2023-05-27T02:33:46;98490.66;;;14.37;47.58
2841;BME280;53423;49.224;12.074;2023-05-27T02:36:14;98490.63;;;14.53;46.42
2841;BME280;53423;49.224;12.074;2023-05-27T02:38:42;98492.63;;;14.51;45.88
2841;BME280;53423;49.224;12.074;2023-05-27T02:41:10;98487.97;;;14.53;45.70
2841;BME280;53423;49.224;12.074;2023-05-27T02:43:38;98489.19;;;14.43;46.34
2841;BME280;53423;49.224;12.074;2023-05-27T02:46:06;98494.63;;;14.41;45.96
2841;BME280;53423;49.224;12.074;2023-05-27T02:48:36;98489.94;;;14.67;45.00
2841;BME280;53423;49.224;12.074;2023-05-27T02:51:04;98494.13;;;14.46;45.27
2841;BME280;53423;49.224;12.074;2023-05-27T02:53:32;98492.63;;;14.43;46.14
2841;BME280;53423;49.224;12.074;2023-05-27T02:56:00;98496.34;;;14.73;44.08
2841;BME280;53423;49.224;12.074;2023-05-27T02:58:27;98486.13;;;14.62;44.46
2841;BME280;53423;49.224;12.074;2023-05-27T03:00:55;98487.94;;;14.69;43.11
2841;BME280;53423;49.224;12.074;2023-05-27T03:03:23;98490.44;;;14.55;43.93
2841;BME280;53423;49.224;12.074;2023-05-27T03:05:53;98488.66;;;14.47;44.02
2841;BME280;53423;49.224;12.074;2023-05-27T03:08:21;98483.06;;;14.42;43.36
2841;BME280;53423;49.224;12.074;2023-05-27T03:10:49;98492.13;;;14.48;43.70
2841;BME280;53423;49.224;12.074;2023-05-27T03:13:17;98485.03;;;14.48;43.77
2841;BME280;53423;49.224;12.074;2023-05-27T03:15:45;98475.66;;;14.30;44.42
2841;BME280;53423;49.224;12.074;2023-05-27T03:18:13;98491.69;;;14.36;44.77
2841;BME280;53423;49.224;12.074;2023-05-27T03:20:41;98482.53;;;14.55;43.37
2841;BME280;53423;49.224;12.074;2023-05-27T03:23:10;98483.56;;;14.46;43.54
2841;BME280;53423;49.224;12.074;2023-05-27T03:25:38;98474.47;;;14.56;43.60
2841;BME280;53423;49.224;12.074;2023-05-27T03:28:06;98479.41;;;14.59;43.56
2841;BME280;53423;49.224;12.074;2023-05-27T03:30:34;98471.97;;;14.55;43.43
2841;BME280;53423;49.224;12.074;2023-05-27T03:33:03;98482.75;;;14.37;44.01
2841;BME280;53423;49.224;12.074;2023-05-27T03:35:31;98480.06;;;14.61;43.08
2841;BME280;53423;49.224;12.074;2023-05-27T03:37:59;98483.03;;;14.50;43.85
2841;BME280;53423;49.224;12.074;2023-05-27T03:40:28;98471.69;;;14.42;44.47
2841;BME280;53423;49.224;12.074;2023-05-27T03:42:57;98482.59;;;14.39;44.52
2841;BME280;53423;49.224;12.074;2023-05-27T03:45:25;98486.06;;;14.31;44.43
2841;BME280;53423;49.224;12.074;2023-05-27T03:47:53;98490.66;;;14.37;43.75
2841;BME280;53423;49.224;12.074;2023-05-27T03:50:21;98481.59;;;14.48;44.22
2841;BME280;53423;49.224;12.074;2023-05-27T03:52:49;98476.94;;;14.58;43.47
2841;BME280;53423;49.224;12.074;2023-05-27T03:55:17;98481.94;;;14.29;43.65
2841;BME280;53423;49.224;12.074;2023-05-27T03:57:48;98477.69;;;14.28;43.79
2841;BME280;53423;49.224;12.074;2023-05-27T04:00:17;98479.78;;;14.40;44.15
2841;BME280;53423;49.224;12.074;2023-05-27T04:02:45;98486.88;;;14.48;43.95
2841;BME280;53423;49.224;12.074;2023-05-27T04:05:14;98482.06;;;14.43;43.86
2841;BME280;53423;49.224;12.074;2023-05-27T04:07:44;98480.56;;;14.57;43.49
2841;BME280;53423;49.224;12.074;2023-05-27T04:10:12;98491.63;;;14.52;44.07
2841;BME280;53423;49.224;12.074;2023-05-27T04:12:40;98491.50;;;14.38;44.96
2841;BME280;53423;49.224;12.074;2023-05-27T04:15:09;98491.00;;;14.42;44.65
2841;BME280;53423;49.224;12.074;2023-05-27T04:17:37;98496.44;;;14.41;44.98
2841;BME280;53423;49.224;12.074;2023-05-27T04:20:06;98498.38;;;14.47;44.62
2841;BME280;53423;49.224;12.074;2023-05-27T04:22:41;98495.56;;;14.64;44.29
2841;BME280;53423;49.224;12.074;2023-05-27T04:25:09;98492.59;;;14.59;44.19
2841;BME280;53423;49.224;12.074;2023-05-27T04:27:37;98493.47;;;14.90;42.88
2841;BME280;53423;49.224;12.074;2023-05-27T04:30:06;98490.94;;;14.97;42.75
2841;BME280;53423;49.224;12.074;2023-05-27T04:32:37;98496.13;;;14.82;43.29
2841;BME280;53423;49.224;12.074;2023-05-27T04:35:07;98498.38;;;15.02;42.67
2841;BME280;53423;49.224;12.074;2023-05-27T04:37:35;98498.84;;;15.05;42.98
2841;BME280;53423;49.224;12.074;2023-05-27T04:40:04;98502.97;;;15.38;41.20
2841;BME280;53423;49.224;12.074;2023-05-27T04:42:32;98499.91;;;15.27;43.07
2841;BME280;53423;49.224;12.074;2023-05-27T04:45:03;98513.22;;;15.41;42.29
2841;BME280;53423;49.224;12.074;2023-05-27T04:47:32;98505.66;;;15.61;42.18
2841;BME280;53423;49.224;12.074;2023-05-27T04:50:08;98509.31;;;15.82;40.55
2841;BME280;53423;49.224;12.074;2023-05-27T04:52:37;98502.06;;;15.99;39.84
2841;BME280;53423;49.224;12.074;2023-05-27T04:55:09;98499.91;;;16.17;40.25
2841;BME280;53423;49.224;12.074;2023-05-27T04:57:37;98495.81;;;15.77;41.26
2841;BME280;53423;49.224;12.074;2023-05-27T05:00:09;98500.66;;;16.11;40.81
2841;BME280;53423;49.224;12.074;2023-05-27T05:02:50;98507.75;;;15.88;40.50
2841;BME280;53423;49.224;12.074;2023-05-27T05:05:29;98495.47;;;16.32;39.98
2841;BME280;53423;49.224;12.074;2023-05-27T05:07:58;98501.19;;;16.58;40.86
2841;BME280;53423;49.224;12.074;2023-05-27T05:10:26;98495.28;;;16.56;39.95
2841;BME280;53423;49.224;12.074;2023-05-27T05:12:54;98499.16;;;17.04;38.89
2841;BME280;53423;49.224;12.074;2023-05-27T05:15:22;98500.13;;;17.17;37.77
2841;BME280;53423;49.224;12.074;2023-05-27T05:17:50;98487.75;;;16.89;38.77
2841;BME280;53423;49.224;12.074;2023-05-27T05:20:18;98492.78;;;16.98;38.51
2841;BME280;53423;49.224;12.074;2023-05-27T05:22:48;98505.66;;;17.73;38.03
2841;BME280;53423;49.224;12.074;2023-05-27T05:25:16;98493.63;;;19.62;34.07
2841;BME280;53423;49.224;12.074;2023-05-27T05:27:44;98489.78;;;20.62;31.87
2841;BME280;53423;49.224;12.074;2023-05-27T05:30:12;98501.09;;;20.19;33.07
2841;BME280;53423;49.224;12.074;2023-05-27T05:32:40;98508.16;;;19.19;33.53
2841;BME280;53423;49.224;12.074;2023-05-27T05:35:08;98506.75;;;18.82;35.39
2841;BME280;53423;49.224;12.074;2023-05-27T05:37:36;98500.28;;;18.57;35.27
2841;BME280;53423;49.224;12.074;2023-05-27T05:40:07;98496.38;;;18.87;35.56
2841;BME280;53423;49.224;12.074;2023-05-27T05:42:35;98503.47;;;18.80;35.39
2841;BME280;53423;49.224;12.074;2023-05-27T05:45:04;98509.22;;;18.84;35.16
2841;BME280;53423;49.224;12.074;2023-05-27T05:47:32;98507.88;;;19.01;34.85
2841;BME280;53423;49.224;12.074;2023-05-27T05:50:00;98494.56;;;18.94;34.41
2841;BME280;53423;49.224;12.074;2023-05-27T05:52:28;98500.78;;;19.14;34.37
2841;BME280;53423;49.224;12.074;2023-05-27T05:54:56;98508.50;;;19.43;34.01
2841;BME280;53423;49.224;12.074;2023-05-27T05:57:25;98507.72;;;19.62;32.60
2841;BME280;53423;49.224;12.074;2023-05-27T06:00:01;98508.53;;;19.50;32.81
2841;BME280;53423;49.224;12.074;2023-05-27T06:02:29;98506.53;;;19.65;32.89
2841;BME280;53423;49.224;12.074;2023-05-27T06:04:57;98504.09;;;19.83;32.00
2841;BME280;53423;49.224;12.074;2023-05-27T06:07:25;98518.84;;;19.99;32.71
2841;BME280;53423;49.224;12.074;2023-05-27T06:09:53;98506.97;;;20.01;32.75
2841;BME280;53423;49.224;12.074;2023-05-27T06:12:21;98509.88;;;20.39;32.95
2841;BME280;53423;49.224;12.074;2023-05-27T06:14:52;98517.84;;;20.58;31.19
2841;BME280;53423;49.224;12.074;2023-05-27T06:17:20;98512.69;;;20.70;31.35
2841;BME280;53423;49.224;12.074;2023-05-27T06:19:48;98519.72;;;20.32;31.31
2841;BME280;53423;49.224;12.074;2023-05-27T06:22:16;98512.31;;;20.47;30.89
2841;BME280;53423;49.224;12.074;2023-05-27T06:24:44;98517.59;;;20.92;30.57
2841;BME280;53423;49.224;12.074;2023-05-27T06:27:12;98524.84;;;20.33;30.58
2841;BME280;53423;49.224;12.074;2023-05-27T06:29:40;98525.47;;;20.22;31.85
2841;BME280;53423;49.224;12.074;2023-05-27T06:32:09;98512.53;;;20.52;31.16
2841;BME280;53423;49.224;12.074;2023-05-27T06:34:37;98523.16;;;20.78;31.37
2841;BME280;53423;49.224;12.074;2023-05-27T06:37:05;98514.16;;;20.66;31.92
2841;BME280;53423;49.224;12.074;2023-05-27T06:39:33;98520.88;;;20.94;30.83
2841;BME280;53423;49.224;12.074;2023-05-27T06:42:01;98520.88;;;20.75;31.45
2841;BME280;53423;49.224;12.074;2023-05-27T06:44:29;98525.44;;;20.55;30.89
2841;BME280;53423;49.224;12.074;2023-05-27T06:46:57;98525.81;;;20.84;31.34
2841;BME280;53423;49.224;12.074;2023-05-27T06:49:26;98524.13;;;20.90;31.55
2841;BME280;53423;49.224;12.074;2023-05-27T06:51:54;98519.19;;;21.13;30.70
2841;BME280;53423;49.224;12.074;2023-05-27T06:54:22;98515.09;;;21.11;30.43
2841;BME280;53423;49.224;12.074;2023-05-27T06:56:50;98519.50;;;21.36;31.10
2841;BME280;53423;49.224;12.074;2023-05-27T06:59:18;98518.97;;;21.65;29.87
2841;BME280;53423;49.224;12.074;2023-05-27T07:01:46;98514.78;;;21.76;29.70
2841;BME280;53423;49.224;12.074;2023-05-27T07:04:15;98514.69;;;21.95;30.00
2841;BME280;53423;49.224;12.074;2023-05-27T07:06:44;98510.31;;;22.01;29.09
2841;BME280;53423;49.224;12.074;2023-05-27T07:09:12;98517.97;;;21.97;30.25
2841;BME280;53423;49.224;12.074;2023-05-27T07:11:41;98520.72;;;22.15;29.01
2841;BME280;53423;49.224;12.074;2023-05-27T07:14:09;98519.38;;;22.25;28.40
2841;BME280;53423;49.224;12.074;2023-05-27T07:16:37;98519.72;;;22.35;28.22
2841;BME280;53423;49.224;12.074;2023-05-27T07:19:05;98520.97;;;22.32;28.61
2841;BME280;53423;49.224;12.074;2023-05-27T07:21:33;98517.72;;;22.55;28.40
2841;BME280;53423;49.224;12.074;2023-05-27T07:24:02;98520.69;;;22.65;28.19
2841;BME280;53423;49.224;12.074;2023-05-27T07:26:31;98508.53;;;22.69;28.53
2841;BME280;53423;49.224;12.074;2023-05-27T07:29:00;98518.84;;;22.65;29.42
2841;BME280;53423;49.224;12.074;2023-05-27T07:31:28;98522.53;;;22.89;28.28
2841;BME280;53423;49.224;12.074;2023-05-27T07:33:56;98524.53;;;22.93;28.95
2841;BME280;53423;49.224;12.074;2023-05-27T07:36:25;98524.78;;;23.10;28.17
2841;BME280;53423;49.224;12.074;2023-05-27T07:38:53;98516.81;;;23.03;27.68
2841;BME280;53423;49.224;12.074;2023-05-27T07:41:22;98512.28;;;23.40;28.74
2841;BME280;53423;49.224;12.074;2023-05-27T07:43:51;98501.72;;;24.04;27.91
2841;BME280;53423;49.224;12.074;2023-05-27T07:46:18;98499.69;;;24.52;27.22
2841;BME280;53423;49.224;12.074;2023-05-27T07:48:46;98490.81;;;23.88;26.62
2841;BME280;53423;49.224;12.074;2023-05-27T07:51:14;98497.88;;;24.00;26.60
2841;BME280;53423;49.224;12.074;2023-05-27T07:53:42;98495.47;;;24.22;27.63
2841;BME280;53423;49.224;12.074;2023-05-27T07:56:10;98496.28;;;24.22;27.18
2841;BME280;53423;49.224;12.074;2023-05-27T07:58:40;98489.75;;;24.41;25.86
2841;BME280;53423;49.224;12.074;2023-05-27T08:01:08;98494.31;;;24.64;25.93
2841;BME280;53423;49.224;12.074;2023-05-27T08:03:36;98483.34;;;24.89;25.57
2841;BME280;53423;49.224;12.074;2023-05-27T08:06:04;98483.41;;;25.17;27.16
2841;BME280;53423;49.224;12.074;2023-05-27T08:08:32;98475.31;;;24.89;26.04
2841;BME280;53423;49.224;12.074;2023-05-27T08:11:00;98481.06;;;25.20;26.22
2841;BME280;53423;49.224;12.074;2023-05-27T08:13:27;98479.31;;;24.75;26.32
2841;BME280;53423;49.224;12.074;2023-05-27T08:15:57;98471.44;;;25.08;26.54
2841;BME280;53423;49.224;12.074;2023-05-27T08:18:25;98461.66;;;25.41;25.62
2841;BME280;53423;49.224;12.074;2023-05-27T08:20:53;98461.16;;;25.89;25.83
2841;BME280;53423;49.224;12.074;2023-05-27T08:23:21;98466.44;;;25.84;25.05
2841;BME280;53423;49.224;12.074;2023-05-27T08:25:49;98464.25;;;25.81;26.79
2841;BME280;53423;49.224;12.074;2023-05-27T08:28:17;98465.59;;;25.95;25.98
2841;BME280;53423;49.224;12.074;2023-05-27T08:30:45;98465.88;;;26.10;25.43
2841;BME280;53423;49.224;12.074;2023-05-27T08:33:14;98459.13;;;25.96;24.78
2841;BME280;53423;49.224;12.074;2023-05-27T08:35:42;98452.09;;;26.07;24.00
2841;BME280;53423;49.224;12.074;2023-05-27T08:38:10;98451.53;;;26.05;24.53
2841;BME280;53423;49.224;12.074;2023-05-27T08:40:38;98452.47;;;25.82;25.36
2841;BME280;53423;49.224;12.074;2023-05-27T08:43:06;98446.44;;;25.92;24.82
2841;BME280;53423;49.224;12.074;2023-05-27T08:45:34;98450.69;;;26.04;25.23
2841;BME280;53423;49.224;12.074;2023-05-27T08:48:03;98451.69;;;26.15;24.82
2841;BME280;53423;49.224;12.074;2023-05-27T08:50:33;98447.06;;;26.10;25.27
2841;BME280;53423;49.224;12.074;2023-05-27T08:53:02;98444.09;;;25.95;24.70
2841;BME280;53423;49.224;12.074;2023-05-27T08:55:30;98444.94;;;26.12;24.50
2841;BME280;53423;49.224;12.074;2023-05-27T08:58:01;98438.72;;;26.28;23.98
2841;BME280;53423;49.224;12.074;2023-05-27T09:00:29;98440.53;;;26.06;24.54
2841;BME280;53423;49.224;12.074;2023-05-27T09:02:57;98435.50;;;26.64;23.69
2841;BME280;53423;49.224;12.074;2023-05-27T09:05:26;98436.78;;;26.78;24.06
2841;BME280;53423;49.224;12.074;2023-05-27T09:07:55;98435.22;;;26.82;23.81
2841;BME280;53423;49.224;12.074;2023-05-27T09:10:23;98427.16;;;26.82;23.21
2841;BME280;53423;49.224;12.074;2023-05-27T09:13:02;98423.56;;;27.20;23.69
2841;BME280;53423;49.224;12.074;2023-05-27T09:15:30;98419.19;;;27.14;23.09
2841;BME280;53423;49.224;12.074;2023-05-27T09:17:59;98419.34;;;26.64;23.62
2841;BME280;53423;49.224;12.074;2023-05-27T09:20:28;98421.66;;;26.56;23.67
2841;BME280;53423;49.224;12.074;2023-05-27T09:22:59;98412.66;;;27.10;23.78
2841;BME280;53423;49.224;12.074;2023-05-27T09:25:28;98411.09;;;27.62;22.61
2841;BME280;53423;49.224;12.074;2023-05-27T09:27:56;98411.31;;;27.56;22.13
2841;BME280;53423;49.224;12.074;2023-05-27T09:30:24;98409.00;;;27.69;22.24
2841;BME280;53423;49.224;12.074;2023-05-27T09:33:00;98402.38;;;27.50;22.17
2841;BME280;53423;49.224;12.074;2023-05-27T09:35:29;98400.69;;;26.96;22.85
2841;BME280;53423;49.224;12.074;2023-05-27T09:38:06;98404.97;;;26.97;23.72
2841;BME280;53423;49.224;12.074;2023-05-27T09:40:35;98396.28;;;27.33;22.42
2841;BME280;53423;49.224;12.074;2023-05-27T09:43:04;98392.47;;;27.29;22.52
2841;BME280;53423;49.224;12.074;2023-05-27T09:45:33;98390.44;;;27.99;22.02
2841;BME280;53423;49.224;12.074;2023-05-27T09:48:01;98387.84;;;28.15;21.25
2841;BME280;53423;49.224;12.074;2023-05-27T09:50:30;98390.31;;;27.89;22.33
2841;BME280;53423;49.224;12.074;2023-05-27T09:52:59;98389.75;;;28.14;22.38
2841;BME280;53423;49.224;12.074;2023-05-27T09:55:40;98378.28;;;27.39;21.19
2841;BME280;53423;49.224;12.074;2023-05-27T09:58:09;98374.25;;;27.99;22.36
2841;BME280;53423;49.224;12.074;2023-05-27T10:00:38;98374.34;;;28.15;21.15
2841;BME280;53423;49.224;12.074;2023-05-27T10:03:07;98385.38;;;28.08;20.98
2841;BME280;53423;49.224;12.074;2023-05-27T10:05:37;98375.66;;;27.75;22.39
2841;BME280;53423;49.224;12.074;2023-05-27T10:08:05;98371.88;;;28.50;20.61
2841;BME280;53423;49.224;12.074;2023-05-27T10:10:51;98369.91;;;28.35;20.24
2841;BME280;53423;49.224;12.074;2023-05-27T10:13:21;98372.56;;;28.30;20.28
2841;BME280;53423;49.224;12.074;2023-05-27T10:15:51;98365.81;;;28.28;20.84
2841;BME280;53423;49.224;12.074;2023-05-27T10:18:23;98374.34;;;28.56;20.20
2841;BME280;53423;49.224;12.074;2023-05-27T10:20:51;98365.84;;;28.33;19.82
2841;BME280;53423;49.224;12.074;2023-05-27T10:23:24;98363.53;;;28.51;20.51
2841;BME280;53423;49.224;12.074;2023-05-27T10:25:56;98352.50;;;28.53;19.34
2841;BME280;53423;49.224;12.074;2023-05-27T10:28:28;98356.69;;;28.95;19.59
2841;BME280;53423;49.224;12.074;2023-05-27T10:31:06;98344.94;;;28.60;19.78
2841;BME280;53423;49.224;12.074;2023-05-27T10:33:35;98345.56;;;28.25;20.13
2841;BME280;53423;49.224;12.074;2023-05-27T10:36:07;98353.16;;;27.60;20.97
2841;BME280;53423;49.224;12.074;2023-05-27T10:38:36;98340.13;;;28.20;21.46
2841;BME280;53423;49.224;12.074;2023-05-27T10:41:06;98343.78;;;28.41;19.48
2841;BME280;53423;49.224;12.074;2023-05-27T10:43:35;98339.16;;;28.41;18.61
2841;BME280;53423;49.224;12.074;2023-05-27T10:46:07;98343.88;;;27.82;19.84
2841;BME280;53423;49.224;12.074;2023-05-27T10:48:37;98340.53;;;27.97;19.71
2841;BME280;53423;49.224;12.074;2023-05-27T10:51:07;98338.47;;;28.56;19.00
2841;BME280;53423;49.224;12.074;2023-05-27T10:53:36;98336.03;;;28.54;19.19
2841;BME280;53423;49.224;12.074;2023-05-27T10:56:06;98331.41;;;28.50;19.01
2841;BME280;53423;49.224;12.074;2023-05-27T10:58:36;98316.75;;;28.97;20.27
2841;BME280;53423;49.224;12.074;2023-05-27T11:01:08;98318.97;;;29.25;20.06
2841;BME280;53423;49.224;12.074;2023-05-27T11:03:42;98321.28;;;28.77;19.77
2841;BME280;53423;49.224;12.074;2023-05-27T11:06:11;98320.13;;;28.58;20.05
2841;BME280;53423;49.224;12.074;2023-05-27T11:08:39;98330.69;;;28.23;20.08
2841;BME280;53423;49.224;12.074;2023-05-27T11:11:10;98318.50;;;28.10;20.49
2841;BME280;53423;49.224;12.074;2023-05-27T11:13:39;98309.34;;;28.58;19.62
2841;BME280;53423;49.224;12.074;2023-05-27T11:16:13;98324.50;;;27.80;20.18
2841;BME280;53423;49.224;12.074;2023-05-27T11:18:43;98311.34;;;27.57;20.17
2841;BME280;53423;49.224;12.074;2023-05-27T11:21:12;98323.16;;;27.51;19.90
2841;BME280;53423;49.224;12.074;2023-05-27T11:23:44;98315.88;;;28.20;19.81
2841;BME280;53423;49.224;12.074;2023-05-27T11:26:17;98318.53;;;28.67;19.39
2841;BME280;53423;49.224;12.074;2023-05-27T11:28:47;98309.31;;;28.53;20.66
2841;BME280;53423;49.224;12.074;2023-05-27T11:31:16;98311.63;;;29.06;20.16
2841;BME280;53423;49.224;12.074;2023-05-27T11:33:45;98304.09;;;29.08;19.15
2841;BME280;53423;49.224;12.074;2023-05-27T11:36:15;98300.50;;;28.77;18.74
2841;BME280;53423;49.224;12.074;2023-05-27T11:38:48;98301.97;;;29.20;18.47
2841;BME280;53423;49.224;12.074;2023-05-27T11:41:18;98301.22;;;28.53;19.20
2841;BME280;53423;49.224;12.074;2023-05-27T11:43:51;98296.66;;;28.68;19.25
2841;BME280;53423;49.224;12.074;2023-05-27T11:46:20;98284.88;;;28.89;19.27
2841;BME280;53423;49.224;12.074;2023-05-27T11:48:49;98286.47;;;28.90;19.56
2841;BME280;53423;49.224;12.074;2023-05-27T11:51:17;98280.84;;;28.30;19.50
2841;BME280;53423;49.224;12.074;2023-05-27T11:53:45;98281.03;;;28.75;17.80
2841;BME280;53423;49.224;12.074;2023-05-27T11:56:13;98277.91;;;29.13;17.42
2841;BME280;53423;49.224;12.074;2023-05-27T11:58:43;98270.34;;;29.41;17.70
2841;BME280;53423;49.224;12.074;2023-05-27T12:01:11;98273.31;;;29.14;17.78
2841;BME280;53423;49.224;12.074;2023-05-27T12:03:39;98272.78;;;29.12;19.24
2841;BME280;53423;49.224;12.074;2023-05-27T12:06:08;98264.16;;;29.30;19.32
2841;BME280;53423;49.224;12.074;2023-05-27T12:08:37;98270.63;;;29.24;18.27
2841;BME280;53423;49.224;12.074;2023-05-27T12:11:05;98256.84;;;29.25;18.08
2841;BME280;53423;49.224;12.074;2023-05-27T12:13:34;98254.97;;;29.31;18.26
2841;BME280;53423;49.224;12.074;2023-05-27T12:16:03;98256.25;;;29.03;18.70
2841;BME280;53423;49.224;12.074;2023-05-27T12:18:31;98251.97;;;29.12;17.43
2841;BME280;53423;49.224;12.074;2023-05-27T12:20:59;98247.66;;;29.11;17.89
2841;BME280;53423;49.224;12.074;2023-05-27T12:23:27;98247.66;;;29.11;17.86
2841;BME280;53423;49.224;12.074;2023-05-27T12:25:55;98239.41;;;28.56;17.82
2841;BME280;53423;49.224;12.074;2023-05-27T12:28:23;98243.25;;;28.80;16.60
2841;BME280;53423;49.224;12.074;2023-05-27T12:30:52;98230.28;;;28.67;18.24
2841;BME280;53423;49.224;12.074;2023-05-27T12:33:22;98219.97;;;28.49;18.51
2841;BME280;53423;49.224;12.074;2023-05-27T12:35:49;98234.13;;;28.96;17.68
2841;BME280;53423;49.224;12.074;2023-05-27T12:38:18;98231.97;;;29.13;18.14
2841;BME280;53423;49.224;12.074;2023-05-27T12:40:46;98234.16;;;29.32;18.14
2841;BME280;53423;49.224;12.074;2023-05-27T12:43:15;98224.91;;;28.92;17.96
2841;BME280;53423;49.224;12.074;2023-05-27T12:45:43;98233.56;;;28.99;18.48
2841;BME280;53423;49.224;12.074;2023-05-27T12:48:11;98226.34;;;29.20;18.51
2841;BME280;53423;49.224;12.074;2023-05-27T12:50:41;98220.13;;;29.14;18.12
2841;BME280;53423;49.224;12.074;2023-05-27T12:53:09;98216.81;;;28.87;17.95
2841;BME280;53423;49.224;12.074;2023-05-27T12:55:37;98217.34;;;28.79;18.12
2841;BME280;53423;49.224;12.074;2023-05-27T12:58:05;98214.66;;;28.79;18.12
2841;BME280;53423;49.224;12.074;2023-05-27T13:00:33;98213.19;;;28.47;18.12
2841;BME280;53423;49.224;12.074;2023-05-27T13:03:02;98207.75;;;28.37;17.87
2841;BME280;53423;49.224;12.074;2023-05-27T13:05:30;98209.47;;;28.53;18.20
2841;BME280;53423;49.224;12.074;2023-05-27T13:08:02;98203.59;;;28.81;18.31
2841;BME280;53423;49.224;12.074;2023-05-27T13:10:31;98202.94;;;28.49;18.18